createdAt,value
2023-03-14T00:03:22.869Z,5.75
2023-03-14T00:07:45.206Z,4.05
2023-03-14T00:12:08.586Z,4.13
2023-03-14T00:16:30.838Z,3.80
2023-03-14T00:20:52.817Z,3.60
2023-03-14T00:25:14.764Z,3.08
2023-03-14T00:29:36.683Z,3.55
2023-03-14T00:33:59.034Z,2.38
2023-03-14T00:38:21.116Z,2.33
2023-03-14T00:42:43.197Z,2.13
2023-03-14T00:47:05.342Z,4.65
2023-03-14T00:51:27.395Z,2.03
2023-03-14T00:55:51.834Z,1.75
2023-03-14T01:00:15.056Z,2.22
2023-03-14T01:04:38.947Z,1.77
2023-03-14T01:09:01.360Z,2.53
2023-03-14T01:13:23.402Z,0.77
2023-03-14T01:17:45.462Z,1.63
2023-03-14T01:22:07.489Z,1.05
2023-03-14T01:26:33.625Z,0.77
2023-03-14T01:30:56.103Z,1.23
2023-03-14T01:35:18.502Z,1.60
2023-03-14T01:39:41.465Z,0.80
2023-03-14T01:44:03.726Z,0.70
2023-03-14T01:48:29.984Z,1.25
2023-03-14T01:52:53.929Z,0.55
2023-03-14T01:57:46.206Z,1.00
2023-03-14T02:02:11.243Z,2.10
2023-03-14T02:07:13.545Z,0.63
2023-03-14T02:11:41.662Z,0.50
2023-03-14T02:16:21.388Z,0.80
2023-03-14T02:21:15.360Z,0.57
2023-03-14T02:26:13.076Z,0.90
2023-03-14T02:30:36.450Z,1.95
2023-03-14T02:35:07.335Z,1.10
2023-03-14T02:39:41.474Z,1.58
2023-03-14T02:44:03.813Z,1.77
2023-03-14T02:48:34.800Z,1.08
2023-03-14T02:52:57.135Z,6.43
2023-03-14T02:57:19.371Z,9.23
2023-03-14T03:01:41.626Z,0.85
2023-03-14T03:06:04.331Z,0.60
2023-03-14T03:10:26.790Z,4.88
2023-03-14T03:14:48.717Z,1.85
2023-03-14T03:19:11.471Z,3.10
2023-03-14T03:23:33.629Z,0.70
2023-03-14T03:27:56.039Z,2.92
2023-03-14T03:32:18.420Z,2.42
2023-03-14T03:36:40.882Z,2.03
2023-03-14T03:41:09.434Z,0.75
2023-03-14T03:45:32.032Z,2.90
2023-03-14T03:49:54.747Z,1.13
2023-03-14T03:54:16.887Z,1.98
2023-03-14T03:58:40.028Z,3.53
2023-03-14T04:03:02.904Z,4.28
2023-03-14T04:07:25.339Z,2.08
2023-03-14T04:11:47.360Z,4.10
2023-03-14T04:16:24.987Z,1.73
2023-03-14T04:20:56.107Z,5.57
2023-03-14T04:25:22.812Z,2.78
2023-03-14T04:29:50.085Z,4.78
2023-03-14T04:34:17.241Z,2.97
2023-03-14T04:38:45.251Z,6.93
2023-03-14T04:43:11.309Z,3.22
2023-03-14T04:47:39.542Z,2.78
2023-03-14T04:52:02.913Z,4.68
2023-03-14T04:56:28.806Z,2.13
2023-03-14T05:00:52.093Z,5.35
2023-03-14T05:05:34.220Z,5.45
2023-03-14T05:10:02.358Z,3.80
2023-03-14T05:14:47.270Z,2.88
2023-03-14T05:19:29.354Z,3.30
2023-03-14T05:23:54.435Z,5.78
2023-03-14T05:28:47.644Z,5.22
2023-03-14T05:33:32.634Z,11.88
2023-03-14T05:38:13.313Z,4.85
2023-03-14T05:42:50.137Z,8.23
2023-03-14T05:47:43.839Z,7.80
2023-03-14T05:52:24.980Z,5.25
2023-03-14T05:57:16.298Z,13.07
2023-03-14T06:01:57.523Z,5.65
2023-03-14T06:06:23.677Z,2.63
2023-03-14T06:10:46.450Z,7.85
2023-03-14T06:15:09.602Z,4.97
2023-03-14T06:19:32.201Z,6.03
2023-03-14T06:23:54.475Z,7.63
2023-03-14T06:28:18.315Z,5.00
2023-03-14T06:32:40.373Z,5.25
2023-03-14T06:37:09.935Z,5.60
2023-03-14T06:41:31.905Z,5.28
2023-03-14T06:45:55.078Z,5.13
2023-03-14T06:50:17.195Z,6.05
2023-03-14T06:54:40.891Z,8.05
2023-03-14T06:59:03.166Z,4.72
2023-03-14T07:03:27.803Z,5.18
2023-03-14T07:07:51.698Z,4.65
2023-03-14T07:12:14.066Z,6.40
2023-03-14T07:16:36.200Z,4.93
2023-03-14T07:20:58.145Z,7.18
2023-03-14T07:25:20.246Z,2.67
2023-03-14T07:29:42.605Z,6.50
2023-03-14T07:34:04.980Z,4.38
2023-03-14T07:38:32.313Z,2.10
2023-03-14T07:43:14.865Z,7.95
2023-03-14T07:47:44.426Z,8.05
2023-03-14T07:52:06.725Z,10.10
2023-03-14T07:56:28.717Z,2.05
2023-03-14T08:00:52.220Z,1.92
2023-03-14T08:05:14.425Z,7.72
2023-03-14T08:09:36.691Z,9.02
2023-03-14T08:13:59.078Z,4.97
2023-03-14T08:18:21.003Z,4.32
2023-03-14T08:22:43.391Z,6.00
2023-03-14T08:27:07.332Z,8.07
2023-03-14T08:31:30.070Z,5.20
2023-03-14T08:35:58.167Z,5.63
2023-03-14T08:40:20.527Z,7.15
2023-03-14T08:44:42.876Z,7.45
2023-03-14T08:49:05.502Z,7.05
2023-03-14T08:53:27.720Z,6.70
2023-03-14T08:57:49.940Z,1.67
2023-03-14T09:02:13.959Z,5.38
2023-03-14T09:06:36.804Z,5.28
2023-03-14T09:10:59.142Z,2.72
2023-03-14T09:15:21.390Z,2.03
2023-03-14T09:19:43.463Z,2.22
2023-03-14T09:24:06.536Z,2.33
2023-03-14T09:28:29.666Z,3.40
2023-03-14T09:32:51.441Z,4.82
2023-03-14T09:37:13.664Z,3.28
2023-03-14T09:41:40.684Z,3.83
2023-03-14T09:46:04.333Z,2.83
2023-03-14T09:50:31.278Z,6.32
2023-03-14T09:55:01.222Z,4.28
2023-03-14T09:59:24.122Z,2.40
2023-03-14T10:03:48.275Z,1.85
2023-03-14T10:08:15.234Z,3.03
2023-03-14T10:12:40.169Z,4.00
2023-03-14T10:17:12.713Z,3.22
2023-03-14T10:21:45.235Z,4.30
2023-03-14T10:26:16.892Z,5.65
2023-03-14T10:30:47.219Z,3.13
2023-03-14T10:35:21.991Z,3.70
2023-03-14T10:40:06.958Z,4.78
2023-03-14T10:44:31.085Z,2.22
2023-03-14T10:48:55.638Z,2.25
2023-03-14T10:53:20.339Z,2.67
2023-03-14T10:57:43.925Z,2.33
2023-03-14T11:03:00.391Z,4.03
2023-03-14T11:07:39.746Z,1.15
2023-03-14T11:12:28.919Z,6.72
2023-03-14T11:17:40.766Z,2.72
2023-03-14T11:22:25.702Z,2.83
2023-03-14T11:27:17.180Z,3.45
2023-03-14T11:31:43.839Z,3.95
2023-03-14T11:36:16.578Z,2.38
2023-03-14T11:40:40.535Z,1.58
2023-03-14T11:45:04.921Z,2.65
2023-03-14T11:49:40.693Z,6.40
2023-03-14T11:54:36.958Z,3.70
2023-03-14T11:59:13.120Z,2.30
2023-03-14T12:03:48.329Z,1.15
2023-03-14T12:08:10.682Z,0.95
2023-03-14T12:12:33.537Z,2.25
2023-03-14T12:17:16.753Z,1.67
2023-03-14T12:22:03.260Z,1.67
2023-03-14T12:26:49.636Z,1.80
2023-03-14T12:31:33.093Z,1.95
2023-03-14T12:36:05.253Z,1.42
2023-03-14T12:40:36.536Z,2.55
2023-03-14T12:45:31.317Z,3.03
2023-03-14T12:49:58.600Z,1.23
2023-03-14T12:54:55.967Z,2.05
2023-03-14T12:59:29.097Z,1.83
2023-03-14T13:03:58.526Z,1.92
2023-03-14T13:08:42.234Z,1.85
2023-03-14T13:13:29.048Z,0.50
2023-03-14T13:17:59.157Z,0.55
2023-03-14T13:22:31.637Z,4.47
2023-03-14T13:26:59.084Z,1.30
2023-03-14T13:31:27.439Z,3.95
2023-03-14T13:36:10.955Z,1.45
2023-03-14T13:40:35.487Z,1.55
2023-03-14T13:44:58.536Z,1.77
2023-03-14T13:49:27.022Z,2.03
2023-03-14T13:53:54.105Z,1.17
2023-03-14T13:58:29.921Z,2.10
2023-03-14T14:02:52.727Z,2.97
2023-03-14T14:07:20.026Z,0.95
2023-03-14T14:12:15.043Z,4.22
2023-03-14T14:16:37.937Z,1.10
2023-03-14T14:21:00.498Z,2.17
2023-03-14T14:25:22.549Z,2.58
2023-03-14T14:29:57.085Z,3.35
2023-03-14T14:34:21.043Z,1.75
2023-03-14T14:38:43.538Z,1.83
2023-03-14T14:43:06.624Z,3.17
2023-03-14T14:47:30.200Z,0.88
2023-03-14T14:51:52.619Z,3.72
2023-03-14T14:56:27.730Z,2.65
2023-03-14T15:01:24.841Z,2.88
2023-03-14T15:05:47.222Z,4.18
2023-03-14T15:10:15.340Z,3.75
2023-03-14T15:14:37.246Z,1.88
2023-03-14T15:19:08.755Z,1.63
2023-03-14T15:23:37.012Z,3.70
2023-03-14T15:27:58.879Z,1.55
2023-03-14T15:32:20.953Z,4.60
2023-03-14T15:36:43.164Z,1.27
2023-03-14T15:41:05.361Z,2.05
2023-03-14T15:45:27.387Z,5.68
2023-03-14T15:49:49.094Z,2.70
2023-03-14T15:54:11.300Z,4.20
2023-03-14T15:58:36.308Z,2.45
2023-03-14T16:02:58.300Z,3.38
2023-03-14T16:07:20.449Z,3.40
2023-03-14T16:11:42.418Z,1.58
2023-03-14T16:16:06.168Z,3.47
2023-03-14T16:20:31.367Z,1.65
2023-03-14T16:24:58.077Z,2.75
2023-03-14T16:29:20.040Z,1.40
2023-03-14T16:33:41.975Z,1.88
2023-03-14T16:38:04.537Z,2.97
2023-03-14T16:42:26.557Z,3.55
2023-03-14T16:46:48.588Z,2.30
2023-03-14T16:51:10.545Z,5.03
2023-03-14T16:55:32.598Z,5.40
2023-03-14T16:59:54.699Z,7.18
2023-03-14T17:04:16.945Z,4.53
2023-03-14T17:08:39.297Z,6.50
2023-03-14T17:13:00.996Z,9.63
2023-03-14T17:17:23.122Z,6.25
2023-03-14T17:21:45.243Z,5.53
2023-03-14T17:26:07.546Z,9.23
2023-03-14T17:30:29.734Z,3.95
2023-03-14T17:34:52.099Z,5.47
2023-03-14T17:39:13.998Z,9.13
2023-03-14T17:43:35.907Z,35.47
2023-03-14T17:47:57.834Z,48.00
2023-03-14T17:52:20.238Z,47.00
2023-03-14T17:56:44.039Z,13.93
2023-03-14T18:01:16.634Z,22.42
2023-03-14T18:05:40.583Z,28.98
2023-03-14T18:10:04.133Z,23.67
2023-03-14T18:14:26.182Z,18.80
2023-03-14T18:18:51.848Z,19.05
2023-03-14T18:23:13.674Z,25.95
2023-03-14T18:27:36.683Z,20.38
2023-03-14T18:31:59.012Z,33.67
2023-03-14T18:36:21.144Z,22.73
2023-03-14T18:40:43.022Z,19.98
2023-03-14T18:45:05.763Z,20.38
2023-03-14T18:49:28.048Z,18.02
2023-03-14T18:53:53.998Z,16.88
2023-03-14T18:58:23.892Z,23.60
2023-03-14T19:02:46.384Z,21.45
2023-03-14T19:07:08.398Z,30.30
2023-03-14T19:11:30.682Z,18.20
2023-03-14T19:15:52.745Z,23.88
2023-03-14T19:20:14.633Z,14.98
2023-03-14T19:24:36.718Z,31.85
2023-03-14T19:29:02.733Z,18.00
2023-03-14T19:33:27.249Z,20.02
2023-03-14T19:37:49.137Z,18.27
2023-03-14T19:42:12.010Z,19.92
2023-03-14T19:46:36.136Z,16.73
2023-03-14T19:51:00.617Z,12.82
2023-03-14T19:55:23.623Z,18.02
2023-03-14T19:59:45.510Z,24.85
2023-03-14T20:04:07.641Z,19.17
2023-03-14T20:08:29.551Z,19.30
2023-03-14T20:12:52.037Z,26.55
2023-03-14T20:17:14.350Z,15.25
2023-03-14T20:21:36.544Z,21.92
2023-03-14T20:26:00.284Z,24.20
2023-03-14T20:30:23.150Z,17.80
2023-03-14T20:34:44.983Z,20.10
2023-03-14T20:39:06.907Z,21.23
2023-03-14T20:43:31.857Z,16.70
2023-03-14T20:47:53.969Z,24.90
2023-03-14T20:52:16.144Z,18.08
2023-03-14T20:56:38.015Z,14.85
2023-03-14T21:01:02.327Z,22.10
2023-03-14T21:05:24.882Z,18.92
2023-03-14T21:09:47.002Z,22.90
2023-03-14T21:14:09.014Z,21.05
2023-03-14T21:18:31.755Z,20.80
2023-03-14T21:22:54.062Z,20.20
2023-03-14T21:27:15.962Z,20.48
2023-03-14T21:31:38.814Z,14.55
2023-03-14T21:36:01.986Z,17.67
2023-03-14T21:40:24.789Z,17.23
2023-03-14T21:44:48.793Z,22.50
2023-03-14T21:49:11.450Z,10.77
2023-03-14T21:53:34.985Z,13.65
2023-03-14T21:57:56.863Z,19.30
2023-03-14T22:02:20.910Z,20.48
2023-03-14T22:06:44.697Z,20.27
2023-03-14T22:11:08.084Z,15.63
2023-03-14T22:15:30.005Z,17.55
2023-03-14T22:19:51.954Z,16.83
2023-03-14T22:24:14.445Z,18.40
2023-03-14T22:28:36.669Z,15.95
2023-03-14T22:32:58.586Z,15.05
2023-03-14T22:37:20.518Z,18.17
2023-03-14T22:41:42.680Z,25.38
2023-03-14T22:46:08.323Z,25.33
2023-03-14T22:50:30.235Z,17.52
2023-03-14T22:54:55.938Z,15.93
2023-03-14T22:59:18.395Z,14.75
2023-03-14T23:03:40.424Z,21.35
2023-03-14T23:08:02.451Z,15.10
2023-03-14T23:12:24.611Z,16.48
2023-03-14T23:16:47.612Z,16.48
2023-03-14T23:21:13.153Z,21.25
2023-03-14T23:25:52.200Z,17.70
2023-03-14T23:30:18.783Z,20.58
2023-03-14T23:34:41.146Z,15.70
2023-03-14T23:39:07.486Z,17.77
2023-03-14T23:43:30.063Z,23.65
2023-03-14T23:47:52.164Z,15.63
2023-03-14T23:52:14.458Z,16.42
2023-03-14T23:56:36.603Z,14.52
